createdAt,value
2017-12-06T00:00:51.632Z,36.88
2017-12-06T00:03:32.177Z,33.38
2017-12-06T00:06:15.326Z,28.98
2017-12-06T00:08:49.905Z,25.35
2017-12-06T00:11:23.837Z,27.27
2017-12-06T00:14:06.392Z,28.48
2017-12-06T00:16:43.782Z,30.08
2017-12-06T00:19:18.306Z,36.63
2017-12-06T00:21:51.951Z,34.10
2017-12-06T00:24:30.324Z,29.27
2017-12-06T00:27:09.201Z,29.98
2017-12-06T00:29:48.332Z,29.95
2017-12-06T00:32:26.835Z,26.77
2017-12-06T00:35:04.808Z,31.55
2017-12-06T00:37:42.568Z,35.03
2017-12-06T00:40:24.932Z,31.02
2017-12-06T00:43:04.728Z,28.27
2017-12-06T00:45:46.125Z,28.35
2017-12-06T00:48:25.982Z,25.67
2017-12-06T00:51:06.035Z,27.87
2017-12-06T00:53:40.042Z,27.33
2017-12-06T00:56:19.218Z,28.33
2017-12-06T00:58:58.626Z,31.15
2017-12-06T01:01:37.603Z,31.23
2017-12-06T01:04:16.108Z,28.50
2017-12-06T01:06:55.494Z,35.83
2017-12-06T01:09:34.013Z,37.28
2017-12-06T01:12:16.796Z,29.00
2017-12-06T01:14:56.705Z,36.47
2017-12-06T01:17:35.844Z,33.53
2017-12-06T01:20:15.736Z,32.33
2017-12-06T01:22:54.786Z,37.47
2017-12-06T01:25:35.040Z,36.58
2017-12-06T01:28:14.863Z,38.33
2017-12-06T01:30:55.954Z,42.00
2017-12-06T01:33:37.641Z,37.17
2017-12-06T01:36:16.720Z,33.50
2017-12-06T01:38:54.425Z,40.90
2017-12-06T01:41:35.861Z,36.13
2017-12-06T01:44:11.184Z,46.83
2017-12-06T01:46:51.555Z,37.22
2017-12-06T01:49:30.000Z,38.83
2017-12-06T01:52:10.078Z,41.78
2017-12-06T01:54:48.916Z,44.97
2017-12-06T01:57:28.248Z,41.97
2017-12-06T02:00:08.033Z,39.90
2017-12-06T02:02:46.754Z,39.40
2017-12-06T02:05:25.796Z,39.17
2017-12-06T02:08:04.073Z,40.25
2017-12-06T02:10:43.391Z,45.47
2017-12-06T02:13:22.332Z,39.25
2017-12-06T02:16:02.356Z,36.10
2017-12-06T02:18:42.948Z,34.67
2017-12-06T02:21:25.129Z,40.92
2017-12-06T02:24:04.547Z,44.70
2017-12-06T02:26:44.552Z,38.17
2017-12-06T02:29:23.560Z,33.80
2017-12-06T02:32:04.459Z,39.88
2017-12-06T02:34:46.304Z,36.58
2017-12-06T02:37:27.248Z,32.42
2017-12-06T02:40:14.794Z,37.97
2017-12-06T02:42:58.950Z,37.80
2017-12-06T02:45:39.298Z,32.90
2017-12-06T02:48:19.903Z,33.47
2017-12-06T02:50:54.573Z,31.62
2017-12-06T02:53:35.098Z,38.42
2017-12-06T02:56:14.075Z,31.77
2017-12-06T02:58:55.342Z,38.58
2017-12-06T03:01:34.146Z,32.58
2017-12-06T03:04:13.272Z,35.33
2017-12-06T03:06:52.111Z,37.85
2017-12-06T03:09:29.872Z,37.40
2017-12-06T03:12:07.688Z,35.60
2017-12-06T03:14:47.616Z,31.37
2017-12-06T03:17:27.151Z,35.63
2017-12-06T03:20:05.691Z,33.42
2017-12-06T03:22:43.657Z,35.33
2017-12-06T03:25:22.526Z,34.50
2017-12-06T03:28:01.365Z,35.42
2017-12-06T03:30:40.980Z,32.72
2017-12-06T03:33:13.785Z,33.60
2017-12-06T03:35:48.603Z,32.70
2017-12-06T03:38:29.046Z,34.80
2017-12-06T03:41:09.351Z,35.75
2017-12-06T03:43:50.520Z,31.55
2017-12-06T03:46:29.841Z,31.90
2017-12-06T03:49:08.497Z,38.78
2017-12-06T03:51:47.386Z,32.67
2017-12-06T03:54:27.018Z,31.70
2017-12-06T03:57:00.250Z,38.83
2017-12-06T03:59:39.026Z,35.15
2017-12-06T04:02:12.432Z,38.20
2017-12-06T04:04:51.589Z,35.67
2017-12-06T04:07:31.746Z,37.83
2017-12-06T04:10:09.244Z,33.20
2017-12-06T04:12:49.338Z,32.95
2017-12-06T04:15:22.585Z,36.42
2017-12-06T04:18:02.446Z,34.33
2017-12-06T04:20:43.070Z,35.92
2017-12-06T04:23:26.068Z,31.52
2017-12-06T04:26:04.743Z,32.50
2017-12-06T04:28:42.951Z,29.15
2017-12-06T04:31:16.510Z,34.72
2017-12-06T04:33:53.597Z,31.05
2017-12-06T04:36:33.180Z,33.42
2017-12-06T04:39:11.993Z,35.00
2017-12-06T04:41:47.542Z,42.13
2017-12-06T04:44:22.649Z,33.08
2017-12-06T04:47:01.920Z,39.58
2017-12-06T04:49:42.931Z,32.17
2017-12-06T04:52:21.394Z,33.72
2017-12-06T04:54:59.035Z,36.22
2017-12-06T04:57:39.925Z,29.90
2017-12-06T05:00:19.686Z,30.23
2017-12-06T05:02:57.196Z,33.38
2017-12-06T05:05:34.883Z,30.08
2017-12-06T05:08:14.922Z,32.17
2017-12-06T05:10:53.100Z,34.50
2017-12-06T05:13:32.288Z,28.23
2017-12-06T05:16:10.870Z,28.35
2017-12-06T05:18:52.128Z,29.60
2017-12-06T05:21:33.119Z,33.65
2017-12-06T05:24:12.755Z,30.35
2017-12-06T05:26:52.303Z,33.47
2017-12-06T05:29:31.424Z,33.53
2017-12-06T05:32:09.680Z,30.17
2017-12-06T05:34:52.336Z,31.70
2017-12-06T05:37:28.456Z,35.95
2017-12-06T05:40:01.987Z,37.03
2017-12-06T05:42:44.138Z,27.30
2017-12-06T05:45:19.392Z,36.85
2017-12-06T05:47:57.435Z,34.78
2017-12-06T05:50:31.686Z,30.95
2017-12-06T05:53:07.063Z,33.20
2017-12-06T05:55:40.899Z,37.38
2017-12-06T05:58:15.120Z,39.22
2017-12-06T06:00:54.410Z,36.58
2017-12-06T06:03:33.181Z,32.60
2017-12-06T06:06:12.838Z,33.75
2017-12-06T06:08:52.518Z,36.42
2017-12-06T06:11:27.600Z,30.35
2017-12-06T06:14:07.388Z,36.30
2017-12-06T06:16:46.689Z,28.67
2017-12-06T06:19:20.539Z,27.42
2017-12-06T06:21:55.344Z,35.83
2017-12-06T06:24:30.052Z,30.95
2017-12-06T06:27:09.091Z,25.58
2017-12-06T06:29:48.811Z,22.50
2017-12-06T06:32:28.002Z,25.35
2017-12-06T06:35:06.816Z,25.37
2017-12-06T06:37:45.191Z,22.98
2017-12-06T06:40:23.464Z,29.33
2017-12-06T06:43:03.817Z,22.58
2017-12-06T06:45:37.367Z,27.98
2017-12-06T06:48:12.505Z,26.75
2017-12-06T06:50:45.610Z,26.40
2017-12-06T06:53:24.639Z,22.90
2017-12-06T06:56:04.870Z,20.40
2017-12-06T06:58:39.954Z,22.20
2017-12-06T07:01:19.595Z,21.30
2017-12-06T07:03:59.364Z,22.67
2017-12-06T07:06:39.595Z,19.70
2017-12-06T07:09:19.248Z,20.42
2017-12-06T07:11:56.620Z,22.05
2017-12-06T07:14:34.077Z,19.90
2017-12-06T07:17:15.827Z,41.75
2017-12-06T07:19:52.517Z,22.77
2017-12-06T07:22:27.597Z,21.85
2017-12-06T07:25:05.438Z,25.10
2017-12-06T07:27:44.320Z,18.80
2017-12-06T07:30:23.230Z,20.77
2017-12-06T07:33:02.320Z,21.12
2017-12-06T07:35:45.260Z,24.02
2017-12-06T07:38:21.134Z,28.20
2017-12-06T07:41:00.852Z,27.90
2017-12-06T07:43:42.694Z,23.02
2017-12-06T07:46:21.310Z,32.03
2017-12-06T07:48:59.280Z,25.65
2017-12-06T07:51:40.992Z,26.73
2017-12-06T07:54:19.902Z,21.92
2017-12-06T07:56:58.849Z,22.62
2017-12-06T07:59:38.363Z,25.90
2017-12-06T08:02:12.824Z,25.17
2017-12-06T08:05:02.611Z,34.65
2017-12-06T08:07:43.011Z,27.85
2017-12-06T08:10:17.776Z,26.70
2017-12-06T08:12:58.795Z,17.67
2017-12-06T08:15:38.530Z,19.67
2017-12-06T08:18:11.102Z,20.80
2017-12-06T08:20:54.302Z,17.83
2017-12-06T08:23:29.838Z,22.65
2017-12-06T08:26:04.630Z,19.15
2017-12-06T08:28:38.730Z,21.77
2017-12-06T08:31:18.186Z,21.42
2017-12-06T08:33:58.079Z,24.23
2017-12-06T08:36:37.703Z,24.05
2017-12-06T08:39:16.950Z,18.27
2017-12-06T08:42:00.630Z,20.40
2017-12-06T08:44:40.383Z,21.48
2017-12-06T08:47:23.266Z,20.62
2017-12-06T08:50:06.239Z,28.02
2017-12-06T08:52:47.961Z,21.27
2017-12-06T08:55:21.966Z,25.15
2017-12-06T08:57:56.361Z,17.08
2017-12-06T09:00:29.990Z,22.00
2017-12-06T09:03:07.198Z,21.05
2017-12-06T09:05:40.782Z,19.73
2017-12-06T09:08:19.564Z,20.67
2017-12-06T09:10:59.083Z,23.80
2017-12-06T09:13:40.088Z,19.00
2017-12-06T09:16:18.821Z,18.98
2017-12-06T09:18:53.913Z,20.58
2017-12-06T09:21:37.764Z,22.33
2017-12-06T09:24:17.613Z,26.92
2017-12-06T09:26:56.470Z,20.95
2017-12-06T09:29:36.283Z,22.02
2017-12-06T09:32:10.898Z,22.15
2017-12-06T09:34:53.609Z,23.80
2017-12-06T09:37:35.987Z,21.90
2017-12-06T09:40:09.610Z,34.00
2017-12-06T09:42:48.668Z,22.98
2017-12-06T09:45:29.869Z,24.70
2017-12-06T09:48:09.699Z,23.35
2017-12-06T09:50:52.398Z,27.65
2017-12-06T09:53:33.231Z,23.60
2017-12-06T09:56:10.754Z,21.67
2017-12-06T09:58:51.874Z,26.67
2017-12-06T10:01:31.552Z,21.35
2017-12-06T10:04:06.134Z,30.80
2017-12-06T10:06:49.708Z,27.25
2017-12-06T10:09:28.420Z,25.12
2017-12-06T10:12:02.517Z,21.87
2017-12-06T10:14:43.651Z,23.62
2017-12-06T10:17:27.406Z,24.48
2017-12-06T10:20:06.910Z,25.35
2017-12-06T10:22:48.796Z,30.58
2017-12-06T10:25:25.829Z,23.23
2017-12-06T10:28:03.879Z,25.83
2017-12-06T10:30:37.738Z,29.70
2017-12-06T10:33:11.889Z,24.17
2017-12-06T10:35:53.199Z,32.15
2017-12-06T10:38:36.242Z,27.30
2017-12-06T10:41:09.446Z,27.00
2017-12-06T10:43:49.584Z,26.05
2017-12-06T10:46:29.824Z,25.80
2017-12-06T10:49:08.674Z,26.98
2017-12-06T10:51:47.692Z,26.37
2017-12-06T10:54:29.619Z,23.98
2017-12-06T10:57:07.942Z,24.30
2017-12-06T10:59:50.369Z,25.42
2017-12-06T11:02:29.389Z,27.40
2017-12-06T11:05:10.442Z,30.88
2017-12-06T11:07:51.108Z,21.33
2017-12-06T11:10:29.618Z,25.40
2017-12-06T11:13:07.849Z,24.25
2017-12-06T11:15:42.649Z,21.73
2017-12-06T11:18:22.066Z,22.23
2017-12-06T11:21:04.343Z,27.13
2017-12-06T11:23:37.415Z,25.17
2017-12-06T11:26:16.970Z,23.15
2017-12-06T11:28:58.268Z,23.40
2017-12-06T11:31:38.227Z,23.12
2017-12-06T11:34:20.022Z,27.48
2017-12-06T11:37:03.761Z,22.92
2017-12-06T11:39:43.280Z,22.58
2017-12-06T11:42:20.096Z,23.02
2017-12-06T11:44:54.562Z,22.73
2017-12-06T11:47:35.609Z,21.80
2017-12-06T11:50:15.088Z,22.62
2017-12-06T11:52:50.953Z,19.75
2017-12-06T11:55:34.266Z,21.98
2017-12-06T11:58:21.150Z,29.15
2017-12-06T12:00:56.388Z,20.33
2017-12-06T12:03:31.140Z,21.08
2017-12-06T12:06:11.517Z,22.83
2017-12-06T12:08:54.155Z,22.10
2017-12-06T12:11:32.187Z,23.87
2017-12-06T12:14:18.707Z,24.08
2017-12-06T12:16:52.647Z,21.35
2017-12-06T12:19:32.424Z,29.92
2017-12-06T12:22:14.505Z,25.20
2017-12-06T12:24:58.135Z,29.15
2017-12-06T12:27:40.644Z,19.30
2017-12-06T12:30:22.452Z,25.40
2017-12-06T12:33:04.454Z,24.15
2017-12-06T12:35:47.182Z,23.15
2017-12-06T12:38:22.765Z,19.77
2017-12-06T12:41:04.764Z,24.92
2017-12-06T12:43:45.562Z,25.05
2017-12-06T12:46:32.659Z,31.52
2017-12-06T12:49:19.507Z,20.58
2017-12-06T12:51:54.002Z,24.67
2017-12-06T12:54:34.068Z,23.00
2017-12-06T12:57:13.868Z,21.95
2017-12-06T12:59:47.398Z,22.60
2017-12-06T13:02:26.630Z,22.85
2017-12-06T13:05:13.165Z,25.90
2017-12-06T13:07:55.993Z,22.73
2017-12-06T13:10:36.509Z,28.15
2017-12-06T13:13:15.805Z,26.87
2017-12-06T13:15:55.429Z,24.77
2017-12-06T13:18:39.146Z,25.77
2017-12-06T13:21:18.387Z,26.02
2017-12-06T13:23:52.218Z,23.77
2017-12-06T13:26:31.358Z,30.12
2017-12-06T13:29:10.150Z,26.33
2017-12-06T13:31:49.923Z,25.85
2017-12-06T13:34:29.597Z,27.85
2017-12-06T13:37:12.317Z,25.73
2017-12-06T13:39:57.850Z,24.08
2017-12-06T13:42:38.132Z,32.58
2017-12-06T13:45:18.982Z,27.37
2017-12-06T13:47:59.460Z,24.65
2017-12-06T13:50:38.254Z,31.08
2017-12-06T13:53:18.774Z,30.98
2017-12-06T13:55:52.853Z,30.65
2017-12-06T13:58:30.164Z,29.10
2017-12-06T14:01:11.474Z,27.10
2017-12-06T14:03:45.333Z,26.98
2017-12-06T14:06:20.853Z,29.37
2017-12-06T14:08:55.162Z,32.65
2017-12-06T14:11:38.090Z,34.40
2017-12-06T14:14:12.626Z,33.60
2017-12-06T14:17:02.934Z,29.67
2017-12-06T14:19:42.096Z,33.33
2017-12-06T14:22:28.014Z,31.65
2017-12-06T14:25:12.477Z,28.77
2017-12-06T14:27:53.148Z,39.15
2017-12-06T14:30:34.060Z,33.00
2017-12-06T14:33:11.198Z,28.90
2017-12-06T14:35:51.591Z,40.85
2017-12-06T14:38:27.311Z,31.92
2017-12-06T14:41:08.841Z,34.08
2017-12-06T14:43:52.021Z,35.10
2017-12-06T14:46:26.877Z,31.98
2017-12-06T14:49:07.127Z,33.10
2017-12-06T14:51:46.743Z,34.95
2017-12-06T14:54:27.131Z,32.28
2017-12-06T14:57:07.552Z,35.20
2017-12-06T14:59:47.703Z,33.53
2017-12-06T15:02:32.848Z,35.05
2017-12-06T15:05:12.218Z,35.03
2017-12-06T15:08:05.221Z,35.42
2017-12-06T15:10:46.897Z,29.95
2017-12-06T15:13:33.042Z,29.37
2017-12-06T15:16:14.697Z,35.53
2017-12-06T15:18:55.543Z,31.35
2017-12-06T15:21:34.552Z,29.37
2017-12-06T15:24:18.918Z,37.85
2017-12-06T15:27:01.586Z,31.35
2017-12-06T15:29:37.747Z,31.58
2017-12-06T15:32:20.359Z,35.25
2017-12-06T15:34:59.423Z,31.80
2017-12-06T15:37:42.814Z,32.47
2017-12-06T15:40:28.125Z,34.70
2017-12-06T15:43:13.527Z,33.30
2017-12-06T15:45:52.891Z,37.45
2017-12-06T15:48:27.870Z,31.83
2017-12-06T15:51:14.289Z,34.35
2017-12-06T15:53:47.433Z,34.28
2017-12-06T15:56:30.704Z,37.17
2017-12-06T15:59:09.813Z,33.15
2017-12-06T16:01:53.237Z,44.35
2017-12-06T16:04:32.774Z,35.38
2017-12-06T16:07:20.497Z,38.05
2017-12-06T16:10:01.650Z,35.20
2017-12-06T16:12:45.266Z,43.55
2017-12-06T16:15:29.504Z,37.42
2017-12-06T16:18:10.546Z,42.03
2017-12-06T16:20:49.410Z,35.08
2017-12-06T16:23:28.290Z,39.92
2017-12-06T16:26:08.855Z,45.25
2017-12-06T16:28:48.376Z,35.57
2017-12-06T16:31:23.515Z,36.03
2017-12-06T16:34:03.105Z,36.55
2017-12-06T16:39:31.999Z,38.72
2017-12-06T16:45:14.702Z,36.22
2017-12-06T16:47:57.613Z,37.90
2017-12-06T16:50:40.456Z,34.45
2017-12-06T16:53:34.138Z,38.92
2017-12-06T16:56:16.036Z,35.22
2017-12-06T16:59:04.618Z,37.17
2017-12-06T17:04:33.118Z,40.63
2017-12-06T17:07:10.826Z,38.03
2017-12-06T17:09:52.346Z,40.47
2017-12-06T17:12:36.092Z,43.72
2017-12-06T17:15:18.886Z,40.08
2017-12-06T17:18:03.949Z,36.08
2017-12-06T17:20:45.446Z,37.78
2017-12-06T17:29:08.990Z,39.70
2017-12-06T17:31:56.735Z,44.25
2017-12-06T17:34:39.950Z,43.90
2017-12-06T17:37:22.377Z,39.03
2017-12-06T17:40:05.827Z,39.10
2017-12-06T17:42:46.215Z,38.70
2017-12-06T17:45:27.500Z,39.03
2017-12-06T17:48:12.024Z,39.05
2017-12-06T17:53:38.727Z,39.35
2017-12-06T17:56:20.763Z,40.47
2017-12-06T17:59:03.648Z,43.87
2017-12-06T18:05:00.332Z,43.45
2017-12-06T18:07:44.429Z,39.58
2017-12-06T18:10:33.961Z,35.92
2017-12-06T18:18:00.032Z,39.03
2017-12-06T18:20:42.169Z,45.58
2017-12-06T18:23:28.723Z,45.63
2017-12-06T18:26:08.851Z,36.95
2017-12-06T18:28:47.567Z,38.67
2017-12-06T18:31:21.954Z,36.28
2017-12-06T18:34:02.750Z,36.95
2017-12-06T18:39:28.812Z,37.28
2017-12-06T18:42:12.499Z,43.38
2017-12-06T18:44:52.757Z,29.83
2017-12-06T18:47:38.395Z,39.85
2017-12-06T18:50:38.330Z,36.22
2017-12-06T18:53:13.199Z,36.33
2017-12-06T18:55:56.804Z,42.88
2017-12-06T18:58:42.318Z,35.03
2017-12-06T19:01:28.533Z,36.33
2017-12-06T19:04:09.587Z,40.85
2017-12-06T19:09:36.644Z,36.72
2017-12-06T19:12:20.864Z,40.97
2017-12-06T19:17:48.658Z,37.15
2017-12-06T19:20:27.343Z,39.58
2017-12-06T19:23:10.418Z,37.38
2017-12-06T19:25:52.822Z,34.95
2017-12-06T19:28:34.209Z,34.58
